sensor_id;sensor_type;location;lat;lon;timestamp;P1;durP1;ratioP1;P2;durP2;ratioP2
39698;SDS011;25372;50.582;12.250;2022-07-22T00:03:27;3.97;;;2.13;;
39698;SDS011;25372;50.582;12.250;2022-07-22T00:13:49;2.08;;;1.42;;
39698;SDS011;25372;50.582;12.250;2022-07-22T00:24:10;3.00;;;2.63;;
39698;SDS011;25372;50.582;12.250;2022-07-22T00:34:32;2.55;;;2.08;;
39698;SDS011;25372;50.582;12.250;2022-07-22T00:44:53;3.90;;;2.50;;
39698;SDS011;25372;50.582;12.250;2022-07-22T00:55:15;3.13;;;2.05;;
39698;SDS011;25372;50.582;12.250;2022-07-22T01:05:36;3.00;;;1.70;;
39698;SDS011;25372;50.582;12.250;2022-07-22T01:15:59;3.03;;;2.10;;
39698;SDS011;25372;50.582;12.250;2022-07-22T01:26:21;3.15;;;2.10;;
39698;SDS011;25372;50.582;12.250;2022-07-22T01:36:43;2.38;;;1.85;;
39698;SDS011;25372;50.582;12.250;2022-07-22T01:47:05;1.95;;;1.67;;
39698;SDS011;25372;50.582;12.250;2022-07-22T01:57:26;1.95;;;1.58;;
39698;SDS011;25372;50.582;12.250;2022-07-22T02:07:49;1.75;;;1.45;;
39698;SDS011;25372;50.582;12.250;2022-07-22T02:28:37;1.52;;;1.05;;
39698;SDS011;25372;50.582;12.250;2022-07-22T02:38:58;2.00;;;1.38;;
39698;SDS011;25372;50.582;12.250;2022-07-22T02:49:20;1.65;;;1.40;;
39698;SDS011;25372;50.582;12.250;2022-07-22T02:59:41;1.58;;;1.48;;
39698;SDS011;25372;50.582;12.250;2022-07-22T03:10:05;1.75;;;1.20;;
39698;SDS011;25372;50.582;12.250;2022-07-22T03:20:26;2.03;;;1.30;;
39698;SDS011;25372;50.582;12.250;2022-07-22T03:30:49;1.23;;;0.98;;
39698;SDS011;25372;50.582;12.250;2022-07-22T03:41:10;2.70;;;2.08;;
39698;SDS011;25372;50.582;12.250;2022-07-22T03:51:33;2.38;;;2.03;;
39698;SDS011;25372;50.582;12.250;2022-07-22T04:01:53;4.15;;;1.95;;
39698;SDS011;25372;50.582;12.250;2022-07-22T04:12:16;3.20;;;2.03;;
39698;SDS011;25372;50.582;12.250;2022-07-22T04:22:56;2.67;;;1.77;;
39698;SDS011;25372;50.582;12.250;2022-07-22T04:33:19;2.17;;;1.75;;
39698;SDS011;25372;50.582;12.250;2022-07-22T04:43:40;2.13;;;1.38;;
39698;SDS011;25372;50.582;12.250;2022-07-22T04:54:03;2.40;;;2.08;;
39698;SDS011;25372;50.582;12.250;2022-07-22T05:04:26;1.80;;;1.70;;
39698;SDS011;25372;50.582;12.250;2022-07-22T05:14:49;1.63;;;1.52;;
39698;SDS011;25372;50.582;12.250;2022-07-22T05:25:10;1.65;;;1.48;;
39698;SDS011;25372;50.582;12.250;2022-07-22T05:35:33;1.10;;;1.02;;
39698;SDS011;25372;50.582;12.250;2022-07-22T05:45:54;1.08;;;0.93;;
39698;SDS011;25372;50.582;12.250;2022-07-22T05:56:17;2.63;;;1.40;;
39698;SDS011;25372;50.582;12.250;2022-07-22T06:06:38;1.38;;;1.20;;
39698;SDS011;25372;50.582;12.250;2022-07-22T06:17:00;1.13;;;1.02;;
39698;SDS011;25372;50.582;12.250;2022-07-22T06:27:21;1.83;;;1.55;;
39698;SDS011;25372;50.582;12.250;2022-07-22T06:37:45;1.83;;;1.00;;
39698;SDS011;25372;50.582;12.250;2022-07-22T06:48:10;1.77;;;1.05;;
39698;SDS011;25372;50.582;12.250;2022-07-22T06:58:33;2.67;;;1.38;;
39698;SDS011;25372;50.582;12.250;2022-07-22T07:08:54;1.75;;;1.55;;
39698;SDS011;25372;50.582;12.250;2022-07-22T07:19:18;1.98;;;1.40;;
39698;SDS011;25372;50.582;12.250;2022-07-22T07:29:40;1.65;;;1.20;;
39698;SDS011;25372;50.582;12.250;2022-07-22T07:40:03;2.40;;;2.03;;
39698;SDS011;25372;50.582;12.250;2022-07-22T07:50:25;2.45;;;1.77;;
39698;SDS011;25372;50.582;12.250;2022-07-22T08:00:49;2.38;;;1.60;;
39698;SDS011;25372;50.582;12.250;2022-07-22T08:11:10;2.40;;;1.80;;
39698;SDS011;25372;50.582;12.250;2022-07-22T08:21:44;2.35;;;1.80;;
39698;SDS011;25372;50.582;12.250;2022-07-22T08:32:13;3.90;;;1.70;;
39698;SDS011;25372;50.582;12.250;2022-07-22T08:42:37;2.05;;;1.35;;
39698;SDS011;25372;50.582;12.250;2022-07-22T09:03:22;2.13;;;1.50;;
39698;SDS011;25372;50.582;12.250;2022-07-22T09:13:49;2.30;;;1.58;;
39698;SDS011;25372;50.582;12.250;2022-07-22T09:24:38;2.35;;;1.35;;
39698;SDS011;25372;50.582;12.250;2022-07-22T09:35:08;2.13;;;1.50;;
39698;SDS011;25372;50.582;12.250;2022-07-22T09:45:43;2.55;;;1.52;;
39698;SDS011;25372;50.582;12.250;2022-07-22T09:56:06;2.40;;;1.00;;
39698;SDS011;25372;50.582;12.250;2022-07-22T10:06:29;2.05;;;1.83;;
39698;SDS011;25372;50.582;12.250;2022-07-22T10:16:52;3.50;;;2.15;;
39698;SDS011;25372;50.582;12.250;2022-07-22T10:27:14;2.85;;;1.80;;
39698;SDS011;25372;50.582;12.250;2022-07-22T10:37:38;2.67;;;1.90;;
39698;SDS011;25372;50.582;12.250;2022-07-22T10:48:02;1.38;;;1.20;;
39698;SDS011;25372;50.582;12.250;2022-07-22T10:58:43;2.42;;;1.25;;
39698;SDS011;25372;50.582;12.250;2022-07-22T11:09:14;4.40;;;1.90;;
39698;SDS011;25372;50.582;12.250;2022-07-22T11:19:36;1.50;;;1.40;;
39698;SDS011;25372;50.582;12.250;2022-07-22T11:29:59;2.80;;;1.40;;
39698;SDS011;25372;50.582;12.250;2022-07-22T11:40:23;2.70;;;1.38;;
39698;SDS011;25372;50.582;12.250;2022-07-22T11:50:45;1.77;;;1.50;;
39698;SDS011;25372;50.582;12.250;2022-07-22T12:01:08;1.70;;;1.50;;
39698;SDS011;25372;50.582;12.250;2022-07-22T12:11:31;1.92;;;1.30;;
39698;SDS011;25372;50.582;12.250;2022-07-22T12:21:53;4.78;;;1.95;;
39698;SDS011;25372;50.582;12.250;2022-07-22T12:32:24;1.80;;;1.20;;
39698;SDS011;25372;50.582;12.250;2022-07-22T12:42:46;3.13;;;2.22;;
39698;SDS011;25372;50.582;12.250;2022-07-22T12:53:22;2.23;;;1.30;;
39698;SDS011;25372;50.582;12.250;2022-07-22T13:03:43;2.28;;;1.08;;
39698;SDS011;25372;50.582;12.250;2022-07-22T13:14:05;3.05;;;1.23;;
39698;SDS011;25372;50.582;12.250;2022-07-22T13:24:26;1.08;;;0.98;;
39698;SDS011;25372;50.582;12.250;2022-07-22T13:34:48;1.13;;;1.02;;
39698;SDS011;25372;50.582;12.250;2022-07-22T13:45:09;1.02;;;0.98;;
39698;SDS011;25372;50.582;12.250;2022-07-22T13:55:32;1.52;;;1.00;;
39698;SDS011;25372;50.582;12.250;2022-07-22T14:05:52;0.95;;;0.90;;
39698;SDS011;25372;50.582;12.250;2022-07-22T14:16:14;1.75;;;1.58;;
39698;SDS011;25372;50.582;12.250;2022-07-22T14:26:52;0.85;;;0.85;;
39698;SDS011;25372;50.582;12.250;2022-07-22T14:37:15;1.00;;;0.80;;
39698;SDS011;25372;50.582;12.250;2022-07-22T14:47:36;0.90;;;0.85;;
39698;SDS011;25372;50.582;12.250;2022-07-22T14:57:58;1.38;;;1.10;;
39698;SDS011;25372;50.582;12.250;2022-07-22T15:08:18;1.27;;;1.15;;
39698;SDS011;25372;50.582;12.250;2022-07-22T15:18:41;0.90;;;0.90;;
39698;SDS011;25372;50.582;12.250;2022-07-22T15:29:03;0.90;;;0.80;;
39698;SDS011;25372;50.582;12.250;2022-07-22T15:39:25;0.55;;;0.55;;
39698;SDS011;25372;50.582;12.250;2022-07-22T15:49:45;0.82;;;0.82;;
39698;SDS011;25372;50.582;12.250;2022-07-22T16:00:07;0.82;;;0.82;;
39698;SDS011;25372;50.582;12.250;2022-07-22T16:10:32;1.20;;;0.80;;
39698;SDS011;25372;50.582;12.250;2022-07-22T16:20:54;0.93;;;0.90;;
39698;SDS011;25372;50.582;12.250;2022-07-22T16:31:15;0.98;;;0.90;;
39698;SDS011;25372;50.582;12.250;2022-07-22T16:41:38;2.08;;;1.25;;
39698;SDS011;25372;50.582;12.250;2022-07-22T16:51:59;0.55;;;0.55;;
39698;SDS011;25372;50.582;12.250;2022-07-22T17:02:21;0.85;;;0.70;;
39698;SDS011;25372;50.582;12.250;2022-07-22T17:12:42;1.08;;;0.98;;
39698;SDS011;25372;50.582;12.250;2022-07-22T17:23:04;0.80;;;0.80;;
39698;SDS011;25372;50.582;12.250;2022-07-22T17:33:25;0.82;;;0.82;;
39698;SDS011;25372;50.582;12.250;2022-07-22T17:43:47;1.40;;;0.90;;
39698;SDS011;25372;50.582;12.250;2022-07-22T17:54:09;5.03;;;1.88;;
39698;SDS011;25372;50.582;12.250;2022-07-22T18:04:31;1.48;;;1.38;;
39698;SDS011;25372;50.582;12.250;2022-07-22T18:14:52;0.85;;;0.75;;
39698;SDS011;25372;50.582;12.250;2022-07-22T18:25:14;1.02;;;0.85;;
39698;SDS011;25372;50.582;12.250;2022-07-22T18:35:35;0.65;;;0.65;;
39698;SDS011;25372;50.582;12.250;2022-07-22T18:45:57;0.70;;;0.70;;
39698;SDS011;25372;50.582;12.250;2022-07-22T18:56:20;0.80;;;0.80;;
39698;SDS011;25372;50.582;12.250;2022-07-22T19:06:42;2.47;;;1.42;;
39698;SDS011;25372;50.582;12.250;2022-07-22T19:17:02;1.20;;;0.90;;
39698;SDS011;25372;50.582;12.250;2022-07-22T19:27:25;2.80;;;2.10;;
39698;SDS011;25372;50.582;12.250;2022-07-22T19:37:45;2.50;;;1.35;;
39698;SDS011;25372;50.582;12.250;2022-07-22T19:48:07;1.45;;;1.10;;
39698;SDS011;25372;50.582;12.250;2022-07-22T19:58:28;1.30;;;0.68;;
39698;SDS011;25372;50.582;12.250;2022-07-22T20:08:50;1.33;;;1.23;;
39698;SDS011;25372;50.582;12.250;2022-07-22T20:19:11;1.13;;;0.90;;
39698;SDS011;25372;50.582;12.250;2022-07-22T20:29:32;1.50;;;0.98;;
39698;SDS011;25372;50.582;12.250;2022-07-22T20:39:53;1.20;;;0.68;;
39698;SDS011;25372;50.582;12.250;2022-07-22T20:50:15;1.42;;;0.93;;
39698;SDS011;25372;50.582;12.250;2022-07-22T21:00:36;1.05;;;0.90;;
39698;SDS011;25372;50.582;12.250;2022-07-22T21:10:58;1.92;;;1.13;;
39698;SDS011;25372;50.582;12.250;2022-07-22T21:21:19;0.95;;;0.90;;
39698;SDS011;25372;50.582;12.250;2022-07-22T21:31:41;4.32;;;0.90;;
39698;SDS011;25372;50.582;12.250;2022-07-22T21:42:02;1.15;;;0.80;;
39698;SDS011;25372;50.582;12.250;2022-07-22T21:52:24;0.57;;;0.57;;
39698;SDS011;25372;50.582;12.250;2022-07-22T22:02:45;0.90;;;0.90;;
39698;SDS011;25372;50.582;12.250;2022-07-22T22:13:07;1.02;;;0.93;;
39698;SDS011;25372;50.582;12.250;2022-07-22T22:23:27;0.93;;;0.70;;
39698;SDS011;25372;50.582;12.250;2022-07-22T22:33:49;0.73;;;0.55;;
39698;SDS011;25372;50.582;12.250;2022-07-22T22:44:10;0.52;;;0.52;;
39698;SDS011;25372;50.582;12.250;2022-07-22T22:54:32;0.68;;;0.65;;
39698;SDS011;25372;50.582;12.250;2022-07-22T23:04:53;1.95;;;1.13;;
39698;SDS011;25372;50.582;12.250;2022-07-22T23:15:14;0.85;;;0.70;;
39698;SDS011;25372;50.582;12.250;2022-07-22T23:25:35;1.35;;;0.80;;
39698;SDS011;25372;50.582;12.250;2022-07-22T23:35:57;1.15;;;1.00;;
39698;SDS011;25372;50.582;12.250;2022-07-22T23:46:18;1.02;;;0.90;;
39698;SDS011;25372;50.582;12.250;2022-07-22T23:56:40;3.15;;;1.33;;
